Terminal Aerodrome Forecast
Issued by NWS Mt. Holly, NJ

Home | Current Version | Previous Version | Text Only | Print | Product List | Glossary On
Versions: 1 2 3 4 5 6 7 8 9 10 11 12 13 14 15
000
FTAK31 PANC 221727
TAFABE
TAF
PABE 221727Z 2218/2318 05012KT P6SM VCSH SCT070 BKN090
      TEMPO 2218/2222 06014G22KT
     FM222200 05017G25KT P6SM SCT050 BKN090
     FM230900 14010KT 6SM -RASN BKN025 OVC050
     FM231200 18006KT P6SM VCSH BKN050=

USA.gov is the U.S. government's official web portal to all federal, state and local government web resources and services.